Lake Wylie, South Carolina
Current Conditions -  °F | °C
As of 5:54 PM on Thursday 23 Oct 2014 (Local Time) from KAKH Reporting Station
Clear Clear  
Wind Chill: 67°   Ceiling: Unl
Heat Index: 67°   Visibility: 10mi
Dew Point: 39°   Wind: 3mph
Humidity: 36%   Direction: 360°N
Pressure: 29.99"   Gusts: NA
Location:  35.1039°N, 81.2451°W
Report Text: KAKH 232154Z AUTO 36003KT 10SM CLR 19/04 A2999 RMK AO2 SLP156 T01940039
Loading
Personal Weather Stations






























Interactive Weather Map
Tropical Storm Tracking
New forecast layout! Learn more

10-Day Weather Forecast

Advertisements
Track Severe Weather on mobile